createdAt,value
2016-12-22T00:00:02.133Z,94.12
2016-12-22T00:00:23.867Z,94.06
2016-12-22T00:00:45.602Z,94.14
2016-12-22T00:01:07.336Z,94.19
2016-12-22T00:01:29.199Z,94.09
2016-12-22T00:01:50.931Z,93.99
2016-12-22T00:02:12.701Z,94.11
2016-12-22T00:02:34.453Z,94.06
2016-12-22T00:02:56.196Z,93.96
2016-12-22T00:03:17.939Z,94.16
2016-12-22T00:03:39.685Z,94.45
2016-12-22T00:04:01.423Z,94.44
2016-12-22T00:04:23.174Z,94.41
2016-12-22T00:04:44.921Z,94.42
2016-12-22T00:05:06.658Z,94.36
2016-12-22T00:05:28.412Z,94.22
2016-12-22T00:05:54.953Z,94.24
2016-12-22T00:06:16.700Z,94.21
2016-12-22T00:06:38.424Z,94.14
2016-12-22T00:07:00.177Z,94.10
2016-12-22T00:07:22.048Z,94.11
2016-12-22T00:07:48.557Z,94.20
2016-12-22T00:08:10.295Z,94.24
2016-12-22T00:08:36.828Z,94.32
2016-12-22T00:08:58.558Z,94.19
2016-12-22T00:09:20.301Z,94.12
2016-12-22T00:09:42.067Z,94.08
2016-12-22T00:10:08.605Z,94.04
2016-12-22T00:10:30.346Z,93.94
2016-12-22T00:10:52.074Z,93.87
2016-12-22T00:11:13.840Z,94.01
2016-12-22T00:11:35.593Z,94.35
2016-12-22T00:11:57.343Z,94.50
2016-12-22T00:12:19.085Z,94.42
2016-12-22T00:12:40.824Z,94.21
2016-12-22T00:13:07.335Z,94.14
2016-12-22T00:13:29.076Z,94.36
2016-12-22T00:13:50.806Z,94.49
2016-12-22T00:14:12.543Z,94.68
2016-12-22T00:14:36.974Z,94.75
2016-12-22T00:14:58.721Z,94.82
2016-12-22T00:15:20.541Z,95.00
2016-12-22T00:15:42.283Z,95.13
2016-12-22T00:16:04.040Z,95.09
2016-12-22T00:16:25.890Z,94.88
2016-12-22T00:16:47.632Z,94.89
2016-12-22T00:17:09.369Z,94.94
2016-12-22T00:17:31.132Z,94.85
2016-12-22T00:17:52.889Z,94.78
2016-12-22T00:18:14.631Z,94.74
2016-12-22T00:18:36.362Z,94.64
2016-12-22T00:18:58.106Z,94.66
2016-12-22T00:19:19.852Z,94.72
2016-12-22T00:19:41.583Z,94.68
2016-12-22T00:20:03.324Z,94.57
2016-12-22T00:20:25.081Z,94.44
2016-12-22T00:20:46.835Z,94.35
2016-12-22T00:21:08.648Z,94.35
2016-12-22T00:21:30.368Z,94.38
2016-12-22T00:21:52.109Z,94.29
2016-12-22T00:22:13.850Z,94.41
2016-12-22T00:22:35.592Z,94.73
2016-12-22T00:22:57.362Z,94.96
2016-12-22T00:23:20.131Z,95.16
2016-12-22T00:23:41.909Z,95.20
2016-12-22T00:24:03.827Z,95.19
2016-12-22T00:24:25.565Z,95.10
2016-12-22T00:25:13.806Z,94.63
2016-12-22T00:25:35.549Z,94.53
2016-12-22T00:25:57.282Z,94.51
2016-12-22T00:26:46.547Z,94.24
2016-12-22T00:27:13.042Z,94.36
2016-12-22T00:27:34.777Z,94.49
2016-12-22T00:27:56.509Z,94.42
2016-12-22T00:28:18.249Z,94.41
2016-12-22T00:28:42.592Z,94.39
2016-12-22T00:29:04.325Z,94.33
2016-12-22T00:29:26.074Z,94.32
2016-12-22T00:29:47.806Z,94.34
2016-12-22T00:30:09.544Z,94.33
2016-12-22T00:30:31.268Z,94.17
2016-12-22T00:30:53.010Z,93.99
2016-12-22T00:31:14.756Z,94.10
2016-12-22T00:31:37.498Z,94.22
2016-12-22T00:31:59.246Z,94.33
2016-12-22T00:32:21.008Z,94.59
2016-12-22T00:32:42.745Z,94.69
2016-12-22T00:33:04.501Z,94.57
2016-12-22T00:33:26.240Z,94.52
2016-12-22T00:33:47.984Z,94.49
2016-12-22T00:34:09.729Z,94.49
2016-12-22T00:34:31.466Z,94.49
2016-12-22T00:34:53.213Z,94.61
2016-12-22T00:35:15.091Z,94.60
2016-12-22T00:35:36.836Z,94.50
2016-12-22T00:36:25.214Z,94.08
2016-12-22T00:36:46.973Z,93.97
2016-12-22T00:37:08.707Z,93.93
2016-12-22T00:37:30.452Z,94.03
2016-12-22T00:37:52.198Z,94.09
2016-12-22T00:38:13.947Z,94.04
2016-12-22T00:38:35.674Z,93.95
2016-12-22T00:38:57.416Z,93.91
2016-12-22T00:39:19.162Z,94.03
2016-12-22T00:39:40.894Z,94.06
2016-12-22T00:40:02.628Z,94.00
2016-12-22T00:40:24.366Z,94.20
2016-12-22T00:40:46.119Z,94.33
2016-12-22T00:41:07.969Z,94.41
2016-12-22T00:41:29.705Z,94.38
2016-12-22T00:41:51.450Z,94.41
2016-12-22T00:42:13.187Z,94.41
2016-12-22T00:42:34.940Z,94.50
2016-12-22T00:42:56.674Z,94.49
2016-12-22T00:43:18.421Z,94.32
2016-12-22T00:43:40.165Z,94.24
2016-12-22T00:44:01.937Z,94.14
2016-12-22T00:44:23.675Z,94.24
2016-12-22T00:44:45.421Z,94.41
2016-12-22T00:45:07.162Z,94.50
2016-12-22T00:45:55.449Z,94.52
2016-12-22T00:46:17.181Z,94.51
2016-12-22T00:46:38.921Z,94.51
2016-12-22T00:47:00.795Z,94.47
2016-12-22T00:47:22.530Z,94.52
2016-12-22T00:47:44.273Z,94.49
2016-12-22T00:48:06.006Z,94.38
2016-12-22T00:48:27.766Z,94.16
2016-12-22T00:48:50.507Z,94.20
2016-12-22T00:49:12.261Z,94.29
2016-12-22T00:49:34.001Z,94.47
2016-12-22T00:49:56.738Z,94.49
2016-12-22T00:50:18.474Z,94.37
2016-12-22T00:50:40.218Z,94.40
2016-12-22T00:51:06.722Z,94.47
2016-12-22T00:51:28.469Z,94.36
2016-12-22T00:51:50.198Z,94.20
2016-12-22T00:52:11.960Z,94.13
2016-12-22T00:52:33.725Z,94.03
2016-12-22T00:52:55.498Z,93.89
2016-12-22T00:53:17.232Z,93.86
2016-12-22T00:53:38.984Z,93.89
2016-12-22T00:54:00.722Z,93.98
2016-12-22T00:54:22.451Z,93.88
2016-12-22T00:54:44.204Z,93.84
2016-12-22T00:55:05.933Z,93.79
2016-12-22T00:55:27.686Z,93.74
2016-12-22T00:55:49.432Z,94.00
2016-12-22T00:56:11.161Z,94.18
2016-12-22T00:56:32.898Z,94.20
2016-12-22T00:56:54.643Z,94.09
2016-12-22T00:57:16.378Z,94.10
2016-12-22T00:57:38.140Z,94.18
2016-12-22T00:57:59.876Z,94.42
2016-12-22T00:58:21.625Z,94.50
2016-12-22T00:58:43.373Z,94.62
2016-12-22T00:59:09.878Z,94.52
2016-12-22T00:59:31.626Z,94.37
2016-12-22T00:59:53.366Z,94.32
2016-12-22T01:00:15.098Z,94.43
2016-12-22T01:00:36.827Z,94.56
2016-12-22T01:00:58.607Z,94.75
2016-12-22T01:01:20.354Z,94.77
2016-12-22T01:01:42.086Z,94.70
2016-12-22T01:02:30.334Z,94.51
2016-12-22T01:02:52.067Z,94.49
2016-12-22T01:03:13.805Z,94.40
2016-12-22T01:03:35.548Z,94.32
2016-12-22T01:03:57.282Z,94.31
2016-12-22T01:04:19.046Z,94.39
2016-12-22T01:04:40.799Z,94.45
2016-12-22T01:05:07.297Z,94.43
2016-12-22T01:05:29.031Z,94.26
2016-12-22T01:05:50.835Z,94.10
2016-12-22T01:06:12.566Z,93.98
2016-12-22T01:06:34.344Z,93.93
2016-12-22T01:06:56.077Z,93.96
2016-12-22T01:07:17.809Z,94.06
2016-12-22T01:07:39.546Z,94.21
2016-12-22T01:08:01.312Z,94.35
2016-12-22T01:08:23.066Z,94.32
2016-12-22T01:08:44.817Z,94.24
2016-12-22T01:09:06.578Z,94.14
2016-12-22T01:09:28.334Z,93.97
2016-12-22T01:09:50.076Z,93.79
2016-12-22T01:10:11.844Z,93.61
2016-12-22T01:10:33.587Z,93.48
2016-12-22T01:10:55.328Z,93.42
2016-12-22T01:11:17.067Z,93.56
2016-12-22T01:11:38.805Z,93.61
2016-12-22T01:12:00.544Z,93.73
2016-12-22T01:12:22.295Z,93.73
2016-12-22T01:12:44.032Z,93.75
2016-12-22T01:13:05.789Z,93.71
2016-12-22T01:13:27.527Z,93.63
2016-12-22T01:13:49.272Z,93.61
2016-12-22T01:14:11.012Z,93.69
2016-12-22T01:14:32.753Z,93.65
2016-12-22T01:14:54.517Z,93.58
2016-12-22T01:15:42.772Z,93.40
2016-12-22T01:16:04.486Z,93.44
2016-12-22T01:16:26.222Z,93.47
2016-12-22T01:16:47.968Z,93.39
2016-12-22T01:17:09.698Z,93.34
2016-12-22T01:17:31.428Z,93.28
2016-12-22T01:17:53.179Z,93.46
2016-12-22T01:18:14.913Z,93.63
2016-12-22T01:18:36.654Z,93.83
2016-12-22T01:18:58.395Z,93.93
2016-12-22T01:19:20.135Z,93.98
2016-12-22T01:19:41.871Z,94.05
2016-12-22T01:20:03.623Z,94.02
2016-12-22T01:20:25.367Z,93.97
2016-12-22T01:20:47.100Z,93.78
2016-12-22T01:21:08.897Z,93.64
2016-12-22T01:21:30.631Z,93.44
2016-12-22T01:21:57.135Z,93.30
2016-12-22T01:22:18.867Z,93.37
2016-12-22T01:22:40.597Z,93.31
2016-12-22T01:23:02.342Z,93.07
2016-12-22T01:23:24.093Z,92.96
2016-12-22T01:23:45.832Z,92.92
2016-12-22T01:24:07.601Z,93.02
2016-12-22T01:24:29.337Z,93.08
2016-12-22T01:24:51.075Z,93.26
2016-12-22T01:25:12.838Z,93.25
2016-12-22T01:25:34.574Z,93.25
2016-12-22T01:25:57.308Z,93.53
2016-12-22T01:26:19.079Z,93.81
2016-12-22T01:26:40.814Z,93.85
2016-12-22T01:27:02.548Z,93.78
2016-12-22T01:27:24.286Z,93.52
2016-12-22T01:27:46.027Z,93.39
2016-12-22T01:28:07.761Z,93.29
2016-12-22T01:28:29.505Z,93.20
2016-12-22T01:28:51.242Z,93.19
2016-12-22T01:29:12.992Z,93.22
2016-12-22T01:29:34.723Z,93.10
2016-12-22T01:29:56.456Z,93.05
2016-12-22T01:30:18.189Z,93.05
2016-12-22T01:30:39.929Z,93.02
2016-12-22T01:31:01.660Z,92.97
2016-12-22T01:31:26.056Z,92.95
2016-12-22T01:31:47.797Z,93.01
2016-12-22T01:32:09.528Z,93.02
2016-12-22T01:32:31.273Z,93.03
2016-12-22T01:32:53.039Z,93.18
2016-12-22T01:33:19.548Z,93.23
2016-12-22T01:33:41.278Z,93.33
2016-12-22T01:34:03.157Z,93.25
2016-12-22T01:34:24.902Z,93.20
2016-12-22T01:34:47.642Z,93.05
2016-12-22T01:35:09.374Z,92.99
2016-12-22T01:35:31.110Z,93.04
2016-12-22T01:35:52.865Z,93.05
2016-12-22T01:36:19.369Z,93.17
2016-12-22T01:36:41.100Z,93.32
2016-12-22T01:37:02.842Z,93.24
2016-12-22T01:37:25.580Z,92.98
2016-12-22T01:37:47.307Z,92.91
2016-12-22T01:38:09.042Z,92.95
2016-12-22T01:38:57.274Z,93.02
2016-12-22T01:39:45.549Z,93.65
2016-12-22T01:40:07.297Z,93.81
2016-12-22T01:40:29.038Z,93.71
2016-12-22T01:40:50.797Z,93.55
2016-12-22T01:41:12.623Z,93.33
2016-12-22T01:41:34.361Z,92.95
2016-12-22T01:41:56.099Z,92.91
2016-12-22T01:42:18.835Z,92.91
2016-12-22T01:42:43.079Z,92.93
2016-12-22T01:43:05.813Z,92.95
2016-12-22T01:43:32.307Z,93.05
2016-12-22T01:43:54.044Z,92.77
2016-12-22T01:44:15.810Z,92.65
2016-12-22T01:44:37.791Z,92.49
2016-12-22T01:44:59.398Z,92.53
2016-12-22T01:45:21.147Z,92.49
2016-12-22T01:45:42.881Z,92.53
2016-12-22T01:46:04.624Z,92.56
2016-12-22T01:46:27.364Z,92.59
2016-12-22T01:46:49.115Z,92.69
2016-12-22T01:47:10.849Z,92.92
2016-12-22T01:47:32.598Z,92.87
2016-12-22T01:47:54.332Z,92.97
2016-12-22T01:48:16.080Z,92.98
2016-12-22T01:48:37.835Z,92.93
2016-12-22T01:48:59.586Z,92.83
2016-12-22T01:49:21.322Z,93.04
2016-12-22T01:49:43.064Z,93.27
2016-12-22T01:50:04.823Z,93.23
2016-12-22T01:50:26.552Z,93.14
2016-12-22T01:50:48.284Z,93.04
2016-12-22T01:51:10.022Z,93.02
2016-12-22T01:51:31.770Z,93.06
2016-12-22T01:51:53.520Z,93.13
2016-12-22T01:52:15.265Z,93.18
2016-12-22T01:52:37.002Z,93.12
2016-12-22T01:52:58.737Z,93.27
2016-12-22T01:53:20.466Z,93.22
2016-12-22T01:53:42.201Z,93.20
2016-12-22T01:54:03.939Z,93.24
2016-12-22T01:54:25.672Z,93.25
2016-12-22T01:54:47.432Z,93.31
2016-12-22T01:55:09.177Z,93.28
2016-12-22T01:55:30.920Z,93.29
2016-12-22T01:55:52.658Z,93.20
2016-12-22T01:56:14.404Z,93.22
2016-12-22T01:56:36.144Z,93.21
2016-12-22T01:56:57.881Z,93.20
2016-12-22T01:57:19.626Z,93.25
2016-12-22T01:57:42.364Z,93.23
2016-12-22T01:58:04.105Z,93.10
2016-12-22T01:58:25.846Z,92.99
2016-12-22T01:58:47.574Z,93.00
2016-12-22T01:59:09.317Z,93.13
2016-12-22T01:59:31.053Z,93.13
2016-12-22T01:59:52.786Z,93.07
2016-12-22T02:00:14.529Z,93.01
2016-12-22T02:00:36.266Z,93.02
2016-12-22T02:00:58.009Z,93.04
2016-12-22T02:01:19.762Z,93.01
2016-12-22T02:01:41.494Z,92.94
2016-12-22T02:02:03.238Z,92.99
2016-12-22T02:02:24.973Z,93.22
2016-12-22T02:02:46.722Z,93.19
2016-12-22T02:03:08.475Z,93.04
2016-12-22T02:03:30.218Z,93.02
2016-12-22T02:03:51.952Z,93.02
2016-12-22T02:04:13.685Z,93.12
2016-12-22T02:04:35.419Z,93.26
2016-12-22T02:04:57.157Z,93.47
2016-12-22T02:05:18.900Z,93.68
2016-12-22T02:05:40.631Z,93.81
2016-12-22T02:06:02.367Z,93.80
2016-12-22T02:06:24.112Z,93.76
2016-12-22T02:06:45.844Z,93.75
2016-12-22T02:07:07.592Z,93.87
2016-12-22T02:07:55.849Z,93.92
2016-12-22T02:08:17.580Z,93.99
2016-12-22T02:08:39.319Z,94.16
2016-12-22T02:09:01.062Z,94.42
2016-12-22T02:09:22.797Z,94.59
2016-12-22T02:09:44.539Z,94.61
2016-12-22T02:10:06.291Z,94.57
2016-12-22T02:10:28.050Z,94.53
2016-12-22T02:10:49.784Z,94.51
2016-12-22T02:11:11.534Z,94.58
2016-12-22T02:11:33.300Z,94.65
2016-12-22T02:11:55.044Z,94.63
2016-12-22T02:12:21.553Z,94.38
2016-12-22T02:12:43.297Z,94.30
2016-12-22T02:13:05.027Z,94.30
2016-12-22T02:13:26.776Z,94.25
2016-12-22T02:13:48.515Z,94.20
2016-12-22T02:14:10.260Z,94.07
2016-12-22T02:14:32.020Z,94.03
2016-12-22T02:14:53.734Z,93.91
2016-12-22T02:15:15.461Z,93.76
2016-12-22T02:15:37.206Z,93.66
2016-12-22T02:15:58.956Z,93.64
2016-12-22T02:16:20.689Z,93.58
2016-12-22T02:16:42.426Z,93.56
2016-12-22T02:17:04.192Z,93.66
2016-12-22T02:17:25.938Z,93.64
2016-12-22T02:17:52.440Z,93.59
2016-12-22T02:18:14.171Z,93.84
2016-12-22T02:18:35.918Z,94.05
2016-12-22T02:18:58.653Z,94.03
2016-12-22T02:19:20.389Z,93.94
2016-12-22T02:19:42.119Z,93.92
2016-12-22T02:20:03.857Z,93.99
2016-12-22T02:20:25.595Z,94.03
2016-12-22T02:20:47.332Z,94.06
2016-12-22T02:21:09.060Z,94.00
2016-12-22T02:21:30.810Z,93.86
2016-12-22T02:21:52.550Z,93.76
2016-12-22T02:22:14.287Z,93.72
2016-12-22T02:22:36.034Z,93.76
2016-12-22T02:22:57.771Z,93.71
2016-12-22T02:23:19.501Z,93.55
2016-12-22T02:23:41.244Z,93.68
2016-12-22T02:24:07.777Z,93.76
2016-12-22T02:24:29.524Z,93.63
2016-12-22T02:24:51.274Z,93.49
2016-12-22T02:25:13.009Z,93.36
2016-12-22T02:25:34.745Z,93.32
2016-12-22T02:25:56.486Z,93.29
2016-12-22T02:26:18.219Z,93.31
2016-12-22T02:26:39.966Z,93.35
2016-12-22T02:27:01.729Z,93.30
2016-12-22T02:27:23.454Z,93.32
2016-12-22T02:27:45.201Z,93.42
2016-12-22T02:28:06.932Z,93.54
2016-12-22T02:28:28.657Z,93.56
2016-12-22T02:28:50.397Z,93.50
2016-12-22T02:29:12.147Z,93.45
2016-12-22T02:29:33.903Z,93.36
2016-12-22T02:29:55.629Z,93.47
2016-12-22T02:30:17.381Z,93.40
2016-12-22T02:30:39.125Z,93.32
2016-12-22T02:31:00.859Z,93.25
2016-12-22T02:31:22.597Z,93.10
2016-12-22T02:31:44.338Z,92.85
2016-12-22T02:32:10.858Z,92.85
2016-12-22T02:32:33.577Z,92.97
2016-12-22T02:32:55.318Z,93.28
2016-12-22T02:33:17.051Z,93.37
2016-12-22T02:33:38.781Z,93.46
2016-12-22T02:34:00.523Z,93.59
2016-12-22T02:34:22.278Z,93.63
2016-12-22T02:34:44.029Z,93.72
2016-12-22T02:35:05.771Z,93.80
2016-12-22T02:35:27.519Z,93.81
2016-12-22T02:35:49.272Z,93.76
2016-12-22T02:36:11.002Z,93.77
2016-12-22T02:36:35.363Z,93.72
2016-12-22T02:36:57.099Z,93.51
2016-12-22T02:37:18.844Z,93.44
2016-12-22T02:37:40.591Z,93.52
2016-12-22T02:38:02.350Z,93.54
2016-12-22T02:38:24.102Z,93.52
2016-12-22T02:38:45.835Z,93.35
2016-12-22T02:39:07.565Z,93.31
2016-12-22T02:39:29.309Z,93.33
2016-12-22T02:39:51.040Z,93.44
2016-12-22T02:40:12.780Z,93.71
2016-12-22T02:40:34.531Z,93.88
2016-12-22T02:40:56.279Z,94.14
2016-12-22T02:41:18.009Z,94.15
2016-12-22T02:41:39.754Z,94.15
2016-12-22T02:42:01.502Z,94.12
2016-12-22T02:42:23.280Z,94.02
2016-12-22T02:43:11.521Z,93.60
2016-12-22T02:43:33.267Z,93.42
2016-12-22T02:43:55.022Z,93.35
2016-12-22T02:44:16.764Z,93.31
2016-12-22T02:44:38.508Z,93.34
2016-12-22T02:45:00.249Z,93.56
2016-12-22T02:45:21.980Z,93.71
2016-12-22T02:45:43.714Z,93.82
2016-12-22T02:46:05.445Z,93.93
2016-12-22T02:46:27.177Z,93.94
2016-12-22T02:46:48.916Z,93.94
2016-12-22T02:47:10.660Z,93.85
2016-12-22T02:47:32.401Z,93.68
2016-12-22T02:47:54.142Z,93.54
2016-12-22T02:48:15.880Z,93.35
2016-12-22T02:48:37.613Z,93.50
2016-12-22T02:48:59.350Z,93.71
2016-12-22T02:49:21.095Z,93.95
2016-12-22T02:49:42.823Z,94.00
2016-12-22T02:50:09.349Z,93.98
2016-12-22T02:50:32.076Z,93.86
2016-12-22T02:50:53.808Z,93.77
2016-12-22T02:51:15.551Z,93.69
2016-12-22T02:51:37.286Z,93.61
2016-12-22T02:51:59.052Z,93.60
2016-12-22T02:52:20.812Z,93.63
2016-12-22T02:52:42.543Z,93.90
2016-12-22T02:53:05.278Z,94.06
2016-12-22T02:53:27.015Z,93.97
2016-12-22T02:53:48.757Z,93.95
2016-12-22T02:54:10.491Z,94.09
2016-12-22T02:54:32.224Z,94.18
2016-12-22T02:54:53.964Z,94.06
2016-12-22T02:55:15.708Z,94.09
2016-12-22T02:55:37.443Z,94.11
2016-12-22T02:55:59.184Z,94.36
2016-12-22T02:56:20.927Z,94.56
2016-12-22T02:56:42.690Z,94.60
2016-12-22T02:57:04.443Z,94.55
2016-12-22T02:57:26.189Z,94.70
2016-12-22T02:57:47.937Z,94.80
2016-12-22T02:58:09.691Z,94.78
2016-12-22T02:58:31.421Z,94.76
2016-12-22T02:58:53.151Z,94.79
2016-12-22T02:59:14.889Z,94.67
2016-12-22T02:59:36.629Z,94.29
2016-12-22T02:59:58.366Z,94.00
2016-12-22T03:00:20.109Z,93.92
2016-12-22T03:01:08.359Z,94.01
2016-12-22T03:01:31.098Z,94.39
2016-12-22T03:01:52.840Z,94.74
2016-12-22T03:02:14.585Z,94.80
2016-12-22T03:02:36.331Z,94.53
2016-12-22T03:02:59.082Z,94.49
2016-12-22T03:03:23.611Z,94.48
2016-12-22T03:03:45.354Z,94.38
2016-12-22T03:04:07.092Z,94.26
2016-12-22T03:04:28.823Z,94.22
2016-12-22T03:04:50.564Z,94.17
2016-12-22T03:05:12.299Z,94.12
2016-12-22T03:05:34.040Z,94.07
2016-12-22T03:05:56.780Z,93.97
2016-12-22T03:06:18.514Z,93.91
2016-12-22T03:06:40.251Z,93.83
2016-12-22T03:07:02.003Z,93.79
2016-12-22T03:07:23.737Z,93.64
2016-12-22T03:07:45.489Z,93.50
2016-12-22T03:08:08.317Z,93.58
2016-12-22T03:08:30.067Z,93.90
2016-12-22T03:08:51.803Z,94.07
2016-12-22T03:09:13.558Z,94.08
2016-12-22T03:09:35.297Z,94.02
2016-12-22T03:09:57.040Z,94.11
2016-12-22T03:10:18.789Z,94.18
2016-12-22T03:10:40.534Z,94.18
2016-12-22T03:11:02.274Z,94.08
2016-12-22T03:11:24.013Z,94.24
2016-12-22T03:11:45.751Z,94.23
2016-12-22T03:12:07.494Z,94.13
2016-12-22T03:12:29.233Z,93.99
2016-12-22T03:12:51.070Z,93.86
2016-12-22T03:13:12.812Z,93.74
2016-12-22T03:13:34.559Z,93.61
2016-12-22T03:13:56.288Z,93.66
2016-12-22T03:14:44.538Z,93.94
2016-12-22T03:15:06.271Z,94.02
2016-12-22T03:15:29.013Z,93.81
2016-12-22T03:15:50.767Z,93.61
2016-12-22T03:16:12.506Z,94.02
2016-12-22T03:16:34.238Z,94.28
2016-12-22T03:16:55.964Z,94.32
2016-12-22T03:17:17.697Z,94.24
2016-12-22T03:17:39.445Z,94.24
2016-12-22T03:18:01.182Z,94.35
2016-12-22T03:18:22.936Z,94.38
2016-12-22T03:18:50.437Z,94.29
2016-12-22T03:19:12.176Z,94.09
2016-12-22T03:19:33.909Z,93.96
2016-12-22T03:19:55.650Z,93.79
2016-12-22T03:20:22.153Z,93.50
2016-12-22T03:20:43.889Z,93.42
2016-12-22T03:21:05.630Z,93.43
2016-12-22T03:21:27.362Z,93.55
2016-12-22T03:21:49.097Z,93.65
2016-12-22T03:22:10.827Z,93.51
2016-12-22T03:22:32.567Z,93.48
2016-12-22T03:22:54.306Z,93.53
2016-12-22T03:23:16.039Z,93.42
2016-12-22T03:23:37.804Z,93.29
2016-12-22T03:23:59.548Z,93.58
2016-12-22T03:24:21.284Z,93.91
2016-12-22T03:24:43.015Z,94.17
2016-12-22T03:25:04.759Z,94.19
2016-12-22T03:25:26.489Z,94.08
2016-12-22T03:25:48.243Z,93.91
2016-12-22T03:26:09.992Z,93.59
2016-12-22T03:26:31.725Z,93.46
2016-12-22T03:26:53.458Z,93.37
2016-12-22T03:27:15.195Z,93.38
2016-12-22T03:27:36.926Z,93.33
2016-12-22T03:27:58.663Z,93.29
2016-12-22T03:28:20.412Z,93.13
2016-12-22T03:28:42.143Z,93.13
2016-12-22T03:29:03.892Z,93.19
2016-12-22T03:29:26.641Z,93.26
2016-12-22T03:29:49.421Z,93.34
2016-12-22T03:30:11.146Z,93.19
2016-12-22T03:30:32.887Z,92.94
2016-12-22T03:30:59.393Z,92.93
2016-12-22T03:31:21.127Z,92.99
2016-12-22T03:31:42.859Z,92.89
2016-12-22T03:32:04.599Z,92.85
2016-12-22T03:32:26.345Z,92.96
2016-12-22T03:32:48.078Z,93.10
2016-12-22T03:33:09.806Z,93.18
2016-12-22T03:33:31.574Z,93.12
2016-12-22T03:33:53.316Z,93.08
2016-12-22T03:34:15.063Z,93.02
2016-12-22T03:34:36.808Z,93.09
2016-12-22T03:34:58.553Z,93.29
2016-12-22T03:35:20.295Z,93.31
2016-12-22T03:35:42.037Z,93.26
2016-12-22T03:36:03.793Z,93.20
2016-12-22T03:36:30.310Z,93.01
2016-12-22T03:36:52.044Z,92.85
2016-12-22T03:37:13.780Z,92.84
2016-12-22T03:37:35.514Z,93.14
2016-12-22T03:38:02.020Z,93.58
2016-12-22T03:38:24.757Z,93.85
2016-12-22T03:38:46.528Z,93.97
2016-12-22T03:39:08.280Z,93.85
2016-12-22T03:39:30.041Z,93.49
2016-12-22T03:39:51.790Z,93.33
2016-12-22T03:40:13.552Z,93.31
2016-12-22T03:40:35.293Z,93.12
2016-12-22T03:40:57.037Z,93.01
2016-12-22T03:41:18.766Z,92.95
2016-12-22T03:41:40.495Z,92.84
2016-12-22T03:42:28.807Z,92.82
2016-12-22T03:42:55.306Z,92.72
2016-12-22T03:43:18.057Z,92.72
2016-12-22T03:43:39.786Z,92.81
2016-12-22T03:44:01.521Z,93.06
2016-12-22T03:44:23.271Z,93.19
2016-12-22T03:44:49.776Z,93.30
2016-12-22T03:45:11.529Z,93.50
2016-12-22T03:45:34.321Z,93.69
2016-12-22T03:45:56.153Z,93.89
2016-12-22T03:46:17.883Z,94.17
2016-12-22T03:46:39.614Z,94.23
2016-12-22T03:47:01.348Z,94.07
2016-12-22T03:47:23.184Z,93.87
2016-12-22T03:47:44.916Z,93.63
2016-12-22T03:48:06.656Z,93.43
2016-12-22T03:48:28.416Z,93.25
2016-12-22T03:48:50.152Z,93.33
2016-12-22T03:49:11.897Z,93.34
2016-12-22T03:49:33.630Z,93.46
2016-12-22T03:49:56.401Z,93.76
2016-12-22T03:50:18.138Z,94.09
2016-12-22T03:50:39.872Z,94.35
2016-12-22T03:51:01.611Z,94.54
2016-12-22T03:51:23.343Z,94.58
2016-12-22T03:51:45.081Z,94.52
2016-12-22T03:52:06.821Z,94.35
2016-12-22T03:52:28.563Z,94.20
2016-12-22T03:52:50.427Z,93.91
2016-12-22T03:53:13.167Z,93.81
2016-12-22T03:53:34.901Z,93.70
2016-12-22T03:53:56.641Z,93.65
2016-12-22T03:54:18.391Z,93.84
2016-12-22T03:54:43.005Z,93.98
2016-12-22T03:55:04.743Z,93.80
2016-12-22T03:55:26.493Z,93.62
2016-12-22T03:55:48.234Z,93.52
2016-12-22T03:56:09.975Z,93.40
2016-12-22T03:56:31.708Z,93.31
2016-12-22T03:56:53.450Z,93.23
2016-12-22T03:57:16.192Z,93.27
2016-12-22T03:57:37.945Z,93.40
2016-12-22T03:57:59.691Z,93.44
2016-12-22T03:58:21.415Z,93.50
2016-12-22T03:58:43.280Z,93.54
2016-12-22T03:59:05.036Z,93.65
2016-12-22T03:59:26.764Z,93.67
2016-12-22T03:59:48.509Z,93.80
2016-12-22T04:00:10.242Z,93.88
2016-12-22T04:00:31.981Z,93.89
2016-12-22T04:00:54.716Z,94.13
2016-12-22T04:01:16.475Z,94.18
2016-12-22T04:01:38.205Z,94.03
2016-12-22T04:02:00.957Z,93.92
2016-12-22T04:02:27.452Z,93.72
2016-12-22T04:02:49.187Z,93.73
2016-12-22T04:03:10.923Z,93.71
2016-12-22T04:03:32.670Z,93.65
2016-12-22T04:03:54.422Z,93.74
2016-12-22T04:04:17.162Z,93.88
2016-12-22T04:04:38.892Z,94.18
2016-12-22T04:05:00.630Z,94.43
2016-12-22T04:05:22.369Z,94.56
2016-12-22T04:05:44.113Z,94.52
2016-12-22T04:06:05.854Z,94.31
2016-12-22T04:06:27.590Z,94.14
2016-12-22T04:06:49.339Z,93.93
2016-12-22T04:07:11.077Z,93.94
2016-12-22T04:07:32.807Z,93.85
2016-12-22T04:07:54.545Z,93.76
2016-12-22T04:08:17.280Z,93.60
2016-12-22T04:08:39.041Z,93.56
2016-12-22T04:09:00.779Z,93.71
2016-12-22T04:09:22.516Z,93.81
2016-12-22T04:09:44.249Z,94.14
2016-12-22T04:10:32.482Z,94.50
2016-12-22T04:10:54.229Z,94.46
2016-12-22T04:11:15.964Z,94.55
2016-12-22T04:11:37.720Z,94.49
2016-12-22T04:11:59.471Z,94.56
2016-12-22T04:12:21.206Z,94.65
2016-12-22T04:12:42.938Z,94.68
2016-12-22T04:13:04.696Z,94.60
2016-12-22T04:13:26.422Z,94.47
2016-12-22T04:13:48.164Z,94.21
2016-12-22T04:14:09.905Z,94.14
2016-12-22T04:14:31.632Z,94.14
2016-12-22T04:14:54.364Z,94.07
2016-12-22T04:15:16.104Z,94.00
2016-12-22T04:15:37.844Z,94.15
2016-12-22T04:15:59.606Z,94.14
2016-12-22T04:16:47.875Z,94.14
2016-12-22T04:17:09.597Z,94.11
2016-12-22T04:17:31.333Z,94.17
2016-12-22T04:17:53.176Z,94.08
2016-12-22T04:18:14.905Z,93.98
2016-12-22T04:18:36.637Z,93.92
2016-12-22T04:18:58.390Z,93.79
2016-12-22T04:19:20.141Z,93.67
2016-12-22T04:19:41.880Z,93.58
2016-12-22T04:20:03.620Z,93.56
2016-12-22T04:20:25.356Z,93.68
2016-12-22T04:20:51.861Z,93.71
2016-12-22T04:21:13.615Z,93.75
2016-12-22T04:21:35.358Z,93.78
2016-12-22T04:21:57.103Z,94.00
2016-12-22T04:22:18.843Z,94.19
2016-12-22T04:22:40.578Z,94.25
2016-12-22T04:23:02.326Z,94.23
2016-12-22T04:23:24.066Z,94.15
2016-12-22T04:23:45.805Z,94.08
2016-12-22T04:24:12.309Z,94.01
2016-12-22T04:24:38.806Z,93.97
2016-12-22T04:25:00.550Z,93.99
2016-12-22T04:25:22.287Z,93.95
2016-12-22T04:25:44.024Z,93.94
2016-12-22T04:26:05.753Z,93.92
2016-12-22T04:26:27.490Z,93.92
2016-12-22T04:26:49.223Z,94.01
2016-12-22T04:27:10.967Z,94.02
2016-12-22T04:27:32.716Z,93.93
2016-12-22T04:27:54.454Z,93.83
2016-12-22T04:28:16.186Z,93.88
2016-12-22T04:28:37.930Z,94.00
2016-12-22T04:28:59.683Z,94.14
2016-12-22T04:29:24.070Z,94.27
2016-12-22T04:29:45.804Z,94.45
2016-12-22T04:30:07.553Z,94.40
2016-12-22T04:30:29.361Z,94.30
2016-12-22T04:30:51.095Z,94.26
2016-12-22T04:31:12.840Z,94.31
2016-12-22T04:31:34.572Z,94.39
2016-12-22T04:31:56.309Z,94.28
2016-12-22T04:32:18.059Z,93.79
2016-12-22T04:32:39.810Z,93.68
2016-12-22T04:33:01.571Z,93.91
2016-12-22T04:33:23.325Z,93.98
2016-12-22T04:33:49.830Z,93.90
2016-12-22T04:34:11.586Z,93.76
2016-12-22T04:34:38.083Z,93.76
2016-12-22T04:34:59.833Z,93.61
2016-12-22T04:35:21.571Z,93.56
2016-12-22T04:35:43.311Z,93.62
2016-12-22T04:36:05.054Z,93.90
2016-12-22T04:36:26.801Z,93.98
2016-12-22T04:36:53.307Z,93.92
2016-12-22T04:37:16.036Z,94.05
2016-12-22T04:37:37.794Z,94.01
2016-12-22T04:37:59.539Z,93.91
2016-12-22T04:38:21.273Z,93.89
2016-12-22T04:38:43.031Z,93.83
2016-12-22T04:39:04.770Z,93.66
2016-12-22T04:39:27.502Z,93.63
2016-12-22T04:39:50.233Z,93.67
2016-12-22T04:40:11.985Z,93.74
2016-12-22T04:40:34.720Z,93.96
2016-12-22T04:40:56.461Z,94.21
2016-12-22T04:41:18.189Z,94.23
2016-12-22T04:41:39.929Z,94.20
2016-12-22T04:42:01.670Z,94.11
2016-12-22T04:42:23.400Z,94.01
2016-12-22T04:42:45.155Z,93.87
2016-12-22T04:43:06.898Z,93.73
2016-12-22T04:43:28.652Z,93.74
2016-12-22T04:43:55.168Z,93.58
2016-12-22T04:44:16.910Z,93.44
2016-12-22T04:44:38.650Z,93.43
2016-12-22T04:45:00.381Z,93.39
2016-12-22T04:45:22.109Z,93.29
2016-12-22T04:45:44.845Z,93.09
2016-12-22T04:46:33.090Z,92.97
2016-12-22T04:46:54.829Z,93.17
2016-12-22T04:47:18.564Z,93.46
2016-12-22T04:47:40.314Z,93.57
2016-12-22T04:48:02.056Z,93.61
2016-12-22T04:48:24.785Z,93.72
2016-12-22T04:48:46.523Z,93.70
2016-12-22T04:49:13.047Z,93.71
2016-12-22T04:49:34.781Z,93.65
2016-12-22T04:49:56.529Z,93.73
2016-12-22T04:50:18.260Z,93.84
2016-12-22T04:50:39.991Z,93.94